sensor_id;sensor_type;location;lat;lon;timestamp;P1;durP1;ratioP1;P2;durP2;ratioP2
57899;SDS011;60605;53.716;19.940;2024-02-15T00:02:18;41.00;;;26.70;;
57899;SDS011;60605;53.716;19.940;2024-02-15T00:07:22;26.80;;;13.30;;
57899;SDS011;60605;53.716;19.940;2024-02-15T00:12:26;34.30;;;14.30;;
57899;SDS011;60605;53.716;19.940;2024-02-15T00:17:30;36.80;;;16.20;;
57899;SDS011;60605;53.716;19.940;2024-02-15T00:22:34;36.50;;;14.60;;
57899;SDS011;60605;53.716;19.940;2024-02-15T00:27:37;20.50;;;11.80;;
57899;SDS011;60605;53.716;19.940;2024-02-15T00:32:40;23.30;;;12.70;;
57899;SDS011;60605;53.716;19.940;2024-02-15T00:37:44;24.90;;;16.60;;
57899;SDS011;60605;53.716;19.940;2024-02-15T00:42:48;27.10;;;13.70;;
57899;SDS011;60605;53.716;19.940;2024-02-15T00:47:51;27.20;;;13.90;;
57899;SDS011;60605;53.716;19.940;2024-02-15T00:52:55;25.20;;;14.20;;
57899;SDS011;60605;53.716;19.940;2024-02-15T00:57:58;22.60;;;11.90;;
57899;SDS011;60605;53.716;19.940;2024-02-15T01:03:02;31.00;;;13.90;;
57899;SDS011;60605;53.716;19.940;2024-02-15T01:08:06;42.40;;;16.20;;
57899;SDS011;60605;53.716;19.940;2024-02-15T01:13:11;26.00;;;14.40;;
57899;SDS011;60605;53.716;19.940;2024-02-15T01:18:15;26.10;;;13.20;;
57899;SDS011;60605;53.716;19.940;2024-02-15T01:23:18;20.60;;;13.10;;
57899;SDS011;60605;53.716;19.940;2024-02-15T01:28:23;22.50;;;13.90;;
57899;SDS011;60605;53.716;19.940;2024-02-15T01:33:26;45.40;;;18.50;;
57899;SDS011;60605;53.716;19.940;2024-02-15T01:38:30;31.10;;;15.30;;
57899;SDS011;60605;53.716;19.940;2024-02-15T01:43:34;29.20;;;14.80;;
57899;SDS011;60605;53.716;19.940;2024-02-15T01:48:39;24.70;;;13.60;;
57899;SDS011;60605;53.716;19.940;2024-02-15T01:53:44;27.50;;;13.40;;
57899;SDS011;60605;53.716;19.940;2024-02-15T01:58:48;23.20;;;13.00;;
57899;SDS011;60605;53.716;19.940;2024-02-15T02:03:51;21.50;;;12.40;;
57899;SDS011;60605;53.716;19.940;2024-02-15T02:08:56;24.30;;;13.30;;
57899;SDS011;60605;53.716;19.940;2024-02-15T02:14:00;23.20;;;12.60;;
57899;SDS011;60605;53.716;19.940;2024-02-15T02:19:04;27.80;;;14.00;;
57899;SDS011;60605;53.716;19.940;2024-02-15T02:24:13;42.80;;;19.00;;
57899;SDS011;60605;53.716;19.940;2024-02-15T02:29:21;30.50;;;15.40;;
57899;SDS011;60605;53.716;19.940;2024-02-15T02:34:24;27.80;;;14.40;;
57899;SDS011;60605;53.716;19.940;2024-02-15T02:39:28;25.20;;;15.30;;
57899;SDS011;60605;53.716;19.940;2024-02-15T02:44:34;23.20;;;13.50;;
57899;SDS011;60605;53.716;19.940;2024-02-15T02:49:38;21.30;;;13.40;;
57899;SDS011;60605;53.716;19.940;2024-02-15T02:54:42;25.80;;;14.90;;
57899;SDS011;60605;53.716;19.940;2024-02-15T02:59:45;32.10;;;14.10;;
57899;SDS011;60605;53.716;19.940;2024-02-15T03:04:50;25.60;;;13.30;;
57899;SDS011;60605;53.716;19.940;2024-02-15T03:09:56;28.90;;;16.70;;
57899;SDS011;60605;53.716;19.940;2024-02-15T03:15:00;26.00;;;15.40;;
57899;SDS011;60605;53.716;19.940;2024-02-15T03:20:05;34.00;;;16.30;;
57899;SDS011;60605;53.716;19.940;2024-02-15T03:25:14;30.20;;;15.90;;
57899;SDS011;60605;53.716;19.940;2024-02-15T03:30:18;25.40;;;14.80;;
57899;SDS011;60605;53.716;19.940;2024-02-15T03:35:24;30.10;;;16.90;;
57899;SDS011;60605;53.716;19.940;2024-02-15T03:40:28;30.30;;;16.80;;
57899;SDS011;60605;53.716;19.940;2024-02-15T03:45:33;31.10;;;17.10;;
57899;SDS011;60605;53.716;19.940;2024-02-15T03:50:37;28.00;;;17.80;;
57899;SDS011;60605;53.716;19.940;2024-02-15T03:55:41;33.40;;;16.80;;
57899;SDS011;60605;53.716;19.940;2024-02-15T04:00:45;24.50;;;17.20;;
57899;SDS011;60605;53.716;19.940;2024-02-15T04:05:49;29.30;;;17.30;;
57899;SDS011;60605;53.716;19.940;2024-02-15T04:10:52;29.70;;;18.30;;
57899;SDS011;60605;53.716;19.940;2024-02-15T04:15:56;28.50;;;17.50;;
57899;SDS011;60605;53.716;19.940;2024-02-15T04:20:59;33.50;;;18.90;;
57899;SDS011;60605;53.716;19.940;2024-02-15T04:26:03;27.10;;;16.70;;
57899;SDS011;60605;53.716;19.940;2024-02-15T04:31:06;30.70;;;18.70;;
57899;SDS011;60605;53.716;19.940;2024-02-15T04:36:15;32.30;;;18.70;;
57899;SDS011;60605;53.716;19.940;2024-02-15T04:41:26;31.50;;;19.70;;
57899;SDS011;60605;53.716;19.940;2024-02-15T04:46:30;32.30;;;18.90;;
57899;SDS011;60605;53.716;19.940;2024-02-15T04:51:33;35.90;;;21.20;;
57899;SDS011;60605;53.716;19.940;2024-02-15T04:56:36;37.00;;;22.10;;
57899;SDS011;60605;53.716;19.940;2024-02-15T05:01:40;40.80;;;21.60;;
57899;SDS011;60605;53.716;19.940;2024-02-15T05:06:45;37.10;;;22.70;;
57899;SDS011;60605;53.716;19.940;2024-02-15T05:11:49;38.00;;;23.30;;
57899;SDS011;60605;53.716;19.940;2024-02-15T05:16:53;37.70;;;23.00;;
57899;SDS011;60605;53.716;19.940;2024-02-15T05:21:57;46.90;;;24.30;;
57899;SDS011;60605;53.716;19.940;2024-02-15T05:27:01;37.10;;;23.70;;
57899;SDS011;60605;53.716;19.940;2024-02-15T05:32:05;41.80;;;22.90;;
57899;SDS011;60605;53.716;19.940;2024-02-15T05:37:09;36.40;;;22.70;;
57899;SDS011;60605;53.716;19.940;2024-02-15T05:42:14;42.10;;;24.70;;
57899;SDS011;60605;53.716;19.940;2024-02-15T05:47:17;44.30;;;24.50;;
57899;SDS011;60605;53.716;19.940;2024-02-15T05:52:21;43.70;;;24.80;;
57899;SDS011;60605;53.716;19.940;2024-02-15T05:57:24;51.40;;;27.00;;
57899;SDS011;60605;53.716;19.940;2024-02-15T06:02:28;45.90;;;27.70;;
57899;SDS011;60605;53.716;19.940;2024-02-15T06:07:35;48.10;;;27.10;;
57899;SDS011;60605;53.716;19.940;2024-02-15T06:12:40;52.60;;;27.00;;
57899;SDS011;60605;53.716;19.940;2024-02-15T06:17:44;44.90;;;25.00;;
57899;SDS011;60605;53.716;19.940;2024-02-15T06:22:48;47.40;;;26.50;;
57899;SDS011;60605;53.716;19.940;2024-02-15T06:27:52;44.90;;;26.40;;
57899;SDS011;60605;53.716;19.940;2024-02-15T06:33:01;45.10;;;25.30;;
57899;SDS011;60605;53.716;19.940;2024-02-15T06:38:24;43.30;;;26.50;;
57899;SDS011;60605;53.716;19.940;2024-02-15T06:43:46;55.00;;;28.60;;
57899;SDS011;60605;53.716;19.940;2024-02-15T06:48:50;58.60;;;30.10;;
57899;SDS011;60605;53.716;19.940;2024-02-15T06:53:53;63.10;;;35.00;;
57899;SDS011;60605;53.716;19.940;2024-02-15T06:58:59;60.50;;;32.10;;
57899;SDS011;60605;53.716;19.940;2024-02-15T07:04:03;52.60;;;29.30;;
57899;SDS011;60605;53.716;19.940;2024-02-15T07:09:06;64.40;;;34.00;;
57899;SDS011;60605;53.716;19.940;2024-02-15T07:14:10;61.30;;;31.00;;
57899;SDS011;60605;53.716;19.940;2024-02-15T07:19:14;66.10;;;32.60;;
57899;SDS011;60605;53.716;19.940;2024-02-15T07:24:18;63.00;;;33.00;;
57899;SDS011;60605;53.716;19.940;2024-02-15T07:29:22;63.20;;;31.30;;
57899;SDS011;60605;53.716;19.940;2024-02-15T07:34:26;54.70;;;31.40;;
57899;SDS011;60605;53.716;19.940;2024-02-15T07:39:30;52.10;;;30.50;;
57899;SDS011;60605;53.716;19.940;2024-02-15T07:44:34;52.90;;;28.20;;
57899;SDS011;60605;53.716;19.940;2024-02-15T07:49:39;50.90;;;28.60;;
57899;SDS011;60605;53.716;19.940;2024-02-15T07:54:58;55.80;;;28.60;;
57899;SDS011;60605;53.716;19.940;2024-02-15T08:00:02;51.70;;;28.70;;
57899;SDS011;60605;53.716;19.940;2024-02-15T08:05:13;58.10;;;32.20;;
57899;SDS011;60605;53.716;19.940;2024-02-15T08:10:18;54.50;;;31.00;;
57899;SDS011;60605;53.716;19.940;2024-02-15T08:15:21;58.70;;;32.90;;
57899;SDS011;60605;53.716;19.940;2024-02-15T08:20:27;56.20;;;35.60;;
57899;SDS011;60605;53.716;19.940;2024-02-15T08:25:34;71.20;;;39.10;;
57899;SDS011;60605;53.716;19.940;2024-02-15T08:30:42;80.60;;;45.00;;
57899;SDS011;60605;53.716;19.940;2024-02-15T08:35:46;59.10;;;33.90;;
57899;SDS011;60605;53.716;19.940;2024-02-15T08:40:52;51.80;;;33.80;;
57899;SDS011;60605;53.716;19.940;2024-02-15T08:45:56;58.50;;;36.70;;
57899;SDS011;60605;53.716;19.940;2024-02-15T08:50:59;50.90;;;31.20;;
57899;SDS011;60605;53.716;19.940;2024-02-15T08:56:03;47.80;;;29.70;;
57899;SDS011;60605;53.716;19.940;2024-02-15T09:01:07;42.60;;;23.80;;
57899;SDS011;60605;53.716;19.940;2024-02-15T09:06:11;42.00;;;23.40;;
57899;SDS011;60605;53.716;19.940;2024-02-15T09:11:15;44.70;;;24.50;;
57899;SDS011;60605;53.716;19.940;2024-02-15T09:16:19;44.90;;;25.30;;
57899;SDS011;60605;53.716;19.940;2024-02-15T09:21:24;49.70;;;26.00;;
57899;SDS011;60605;53.716;19.940;2024-02-15T09:26:29;41.40;;;23.20;;
57899;SDS011;60605;53.716;19.940;2024-02-15T09:31:32;45.20;;;24.20;;
57899;SDS011;60605;53.716;19.940;2024-02-15T09:36:37;42.30;;;22.60;;
57899;SDS011;60605;53.716;19.940;2024-02-15T09:41:41;46.20;;;24.00;;
57899;SDS011;60605;53.716;19.940;2024-02-15T09:46:47;52.10;;;26.60;;
57899;SDS011;60605;53.716;19.940;2024-02-15T09:52:00;74.70;;;34.10;;
57899;SDS011;60605;53.716;19.940;2024-02-15T09:57:04;47.30;;;24.90;;
57899;SDS011;60605;53.716;19.940;2024-02-15T10:02:08;46.70;;;25.60;;
57899;SDS011;60605;53.716;19.940;2024-02-15T10:07:14;49.90;;;26.40;;
57899;SDS011;60605;53.716;19.940;2024-02-15T10:12:17;47.70;;;25.40;;
57899;SDS011;60605;53.716;19.940;2024-02-15T10:17:21;52.90;;;27.60;;
57899;SDS011;60605;53.716;19.940;2024-02-15T10:22:25;50.70;;;26.00;;
57899;SDS011;60605;53.716;19.940;2024-02-15T10:27:28;48.10;;;26.20;;
57899;SDS011;60605;53.716;19.940;2024-02-15T10:32:36;55.40;;;28.00;;
57899;SDS011;60605;53.716;19.940;2024-02-15T10:37:40;68.50;;;40.60;;
57899;SDS011;60605;53.716;19.940;2024-02-15T10:42:43;61.00;;;31.30;;
57899;SDS011;60605;53.716;19.940;2024-02-15T10:47:49;56.30;;;28.90;;
57899;SDS011;60605;53.716;19.940;2024-02-15T10:52:56;50.10;;;27.00;;
57899;SDS011;60605;53.716;19.940;2024-02-15T10:58:03;53.80;;;27.80;;
57899;SDS011;60605;53.716;19.940;2024-02-15T11:03:09;51.80;;;29.20;;
57899;SDS011;60605;53.716;19.940;2024-02-15T11:08:18;49.70;;;27.70;;
57899;SDS011;60605;53.716;19.940;2024-02-15T11:13:21;56.30;;;28.60;;
57899;SDS011;60605;53.716;19.940;2024-02-15T11:18:41;107.10;;;42.10;;
57899;SDS011;60605;53.716;19.940;2024-02-15T11:23:47;106.10;;;47.80;;
57899;SDS011;60605;53.716;19.940;2024-02-15T11:28:51;118.50;;;46.60;;
57899;SDS011;60605;53.716;19.940;2024-02-15T11:33:54;121.50;;;48.20;;
57899;SDS011;60605;53.716;19.940;2024-02-15T11:38:58;91.00;;;40.90;;
57899;SDS011;60605;53.716;19.940;2024-02-15T11:44:02;92.10;;;42.40;;
57899;SDS011;60605;53.716;19.940;2024-02-15T11:49:06;75.60;;;40.30;;
57899;SDS011;60605;53.716;19.940;2024-02-15T11:54:10;118.50;;;47.90;;
57899;SDS011;60605;53.716;19.940;2024-02-15T11:59:15;189.10;;;71.10;;
57899;SDS011;60605;53.716;19.940;2024-02-15T12:04:32;97.00;;;45.70;;
57899;SDS011;60605;53.716;19.940;2024-02-15T12:09:58;96.50;;;43.80;;
57899;SDS011;60605;53.716;19.940;2024-02-15T12:15:20;51.20;;;28.30;;
57899;SDS011;60605;53.716;19.940;2024-02-15T12:20:43;58.10;;;31.20;;
57899;SDS011;60605;53.716;19.940;2024-02-15T12:25:51;62.10;;;34.80;;
57899;SDS011;60605;53.716;19.940;2024-02-15T12:30:55;62.10;;;34.10;;
57899;SDS011;60605;53.716;19.940;2024-02-15T12:36:03;43.10;;;26.50;;
57899;SDS011;60605;53.716;19.940;2024-02-15T12:41:21;52.90;;;28.80;;
57899;SDS011;60605;53.716;19.940;2024-02-15T12:46:24;52.30;;;28.30;;
57899;SDS011;60605;53.716;19.940;2024-02-15T12:51:30;61.20;;;30.50;;
57899;SDS011;60605;53.716;19.940;2024-02-15T12:56:38;38.40;;;20.90;;
57899;SDS011;60605;53.716;19.940;2024-02-15T13:01:42;46.40;;;25.80;;
57899;SDS011;60605;53.716;19.940;2024-02-15T13:06:46;48.00;;;25.20;;
57899;SDS011;60605;53.716;19.940;2024-02-15T13:11:49;40.40;;;23.50;;
57899;SDS011;60605;53.716;19.940;2024-02-15T13:16:53;33.00;;;19.10;;
57899;SDS011;60605;53.716;19.940;2024-02-15T13:21:57;37.60;;;21.70;;
57899;SDS011;60605;53.716;19.940;2024-02-15T13:27:01;39.50;;;21.10;;
57899;SDS011;60605;53.716;19.940;2024-02-15T13:32:05;41.70;;;21.60;;
57899;SDS011;60605;53.716;19.940;2024-02-15T13:37:09;33.70;;;20.60;;
57899;SDS011;60605;53.716;19.940;2024-02-15T13:42:12;38.20;;;21.90;;
57899;SDS011;60605;53.716;19.940;2024-02-15T13:47:17;201.30;;;100.00;;
57899;SDS011;60605;53.716;19.940;2024-02-15T13:52:20;53.40;;;34.90;;
57899;SDS011;60605;53.716;19.940;2024-02-15T13:57:25;59.40;;;39.10;;
57899;SDS011;60605;53.716;19.940;2024-02-15T14:02:29;41.60;;;23.50;;
57899;SDS011;60605;53.716;19.940;2024-02-15T14:07:33;43.10;;;24.80;;
57899;SDS011;60605;53.716;19.940;2024-02-15T14:12:38;42.40;;;24.10;;
57899;SDS011;60605;53.716;19.940;2024-02-15T14:17:42;45.20;;;26.80;;
57899;SDS011;60605;53.716;19.940;2024-02-15T14:22:47;53.10;;;28.30;;
57899;SDS011;60605;53.716;19.940;2024-02-15T14:28:14;55.70;;;28.60;;
57899;SDS011;60605;53.716;19.940;2024-02-15T14:33:18;52.10;;;27.40;;
57899;SDS011;60605;53.716;19.940;2024-02-15T14:38:25;47.20;;;26.50;;
57899;SDS011;60605;53.716;19.940;2024-02-15T14:43:28;50.30;;;27.50;;
57899;SDS011;60605;53.716;19.940;2024-02-15T14:48:32;53.70;;;30.10;;
57899;SDS011;60605;53.716;19.940;2024-02-15T14:53:37;56.90;;;31.70;;
57899;SDS011;60605;53.716;19.940;2024-02-15T14:58:41;59.00;;;31.30;;
57899;SDS011;60605;53.716;19.940;2024-02-15T15:03:52;72.00;;;37.30;;
57899;SDS011;60605;53.716;19.940;2024-02-15T15:08:57;87.30;;;44.70;;
57899;SDS011;60605;53.716;19.940;2024-02-15T15:14:20;115.10;;;55.50;;
57899;SDS011;60605;53.716;19.940;2024-02-15T15:19:24;97.50;;;49.80;;
57899;SDS011;60605;53.716;19.940;2024-02-15T15:24:28;136.70;;;54.80;;
57899;SDS011;60605;53.716;19.940;2024-02-15T15:29:32;232.00;;;104.00;;
57899;SDS011;60605;53.716;19.940;2024-02-15T15:34:36;344.20;;;128.60;;
57899;SDS011;60605;53.716;19.940;2024-02-15T15:39:39;450.90;;;172.50;;
57899;SDS011;60605;53.716;19.940;2024-02-15T15:44:43;496.60;;;234.80;;
57899;SDS011;60605;53.716;19.940;2024-02-15T15:49:46;384.00;;;135.80;;
57899;SDS011;60605;53.716;19.940;2024-02-15T15:54:50;177.70;;;85.10;;
57899;SDS011;60605;53.716;19.940;2024-02-15T15:59:53;197.50;;;117.50;;
57899;SDS011;60605;53.716;19.940;2024-02-15T16:04:58;200.10;;;88.00;;
57899;SDS011;60605;53.716;19.940;2024-02-15T16:10:04;155.10;;;75.70;;
57899;SDS011;60605;53.716;19.940;2024-02-15T16:15:10;293.00;;;136.20;;
57899;SDS011;60605;53.716;19.940;2024-02-15T16:20:16;174.50;;;82.80;;
57899;SDS011;60605;53.716;19.940;2024-02-15T16:25:21;178.20;;;77.30;;
57899;SDS011;60605;53.716;19.940;2024-02-15T16:30:25;157.20;;;74.20;;
57899;SDS011;60605;53.716;19.940;2024-02-15T16:35:28;259.20;;;106.20;;
57899;SDS011;60605;53.716;19.940;2024-02-15T16:40:32;301.60;;;116.50;;
57899;SDS011;60605;53.716;19.940;2024-02-15T16:45:36;220.00;;;96.10;;
57899;SDS011;60605;53.716;19.940;2024-02-15T16:50:44;221.60;;;86.40;;
57899;SDS011;60605;53.716;19.940;2024-02-15T16:55:49;155.80;;;70.80;;
57899;SDS011;60605;53.716;19.940;2024-02-15T17:00:54;164.20;;;79.80;;
57899;SDS011;60605;53.716;19.940;2024-02-15T17:05:58;203.40;;;87.20;;
57899;SDS011;60605;53.716;19.940;2024-02-15T17:11:01;172.20;;;86.20;;
57899;SDS011;60605;53.716;19.940;2024-02-15T17:16:05;203.00;;;80.50;;
57899;SDS011;60605;53.716;19.940;2024-02-15T17:21:10;203.80;;;80.60;;
57899;SDS011;60605;53.716;19.940;2024-02-15T17:26:14;204.30;;;82.80;;
57899;SDS011;60605;53.716;19.940;2024-02-15T17:31:17;206.70;;;89.20;;
57899;SDS011;60605;53.716;19.940;2024-02-15T17:36:21;219.90;;;91.30;;
57899;SDS011;60605;53.716;19.940;2024-02-15T17:41:25;202.80;;;92.60;;
57899;SDS011;60605;53.716;19.940;2024-02-15T17:46:29;157.50;;;84.40;;
57899;SDS011;60605;53.716;19.940;2024-02-15T17:51:33;185.90;;;95.40;;
57899;SDS011;60605;53.716;19.940;2024-02-15T17:56:38;152.10;;;76.60;;
57899;SDS011;60605;53.716;19.940;2024-02-15T18:01:42;123.80;;;64.00;;
57899;SDS011;60605;53.716;19.940;2024-02-15T18:12:21;121.70;;;58.50;;
57899;SDS011;60605;53.716;19.940;2024-02-15T18:17:26;112.20;;;63.40;;
57899;SDS011;60605;53.716;19.940;2024-02-15T18:22:29;113.50;;;59.30;;
57899;SDS011;60605;53.716;19.940;2024-02-15T18:27:33;105.50;;;55.40;;
57899;SDS011;60605;53.716;19.940;2024-02-15T18:32:38;122.70;;;65.10;;
57899;SDS011;60605;53.716;19.940;2024-02-15T18:37:43;123.70;;;59.80;;
57899;SDS011;60605;53.716;19.940;2024-02-15T18:42:50;132.50;;;65.10;;
57899;SDS011;60605;53.716;19.940;2024-02-15T18:47:53;170.60;;;77.40;;
57899;SDS011;60605;53.716;19.940;2024-02-15T18:52:57;223.30;;;108.70;;
57899;SDS011;60605;53.716;19.940;2024-02-15T18:58:01;177.30;;;87.60;;
57899;SDS011;60605;53.716;19.940;2024-02-15T19:03:05;197.20;;;88.30;;
57899;SDS011;60605;53.716;19.940;2024-02-15T19:08:10;165.40;;;77.20;;
57899;SDS011;60605;53.716;19.940;2024-02-15T19:13:14;122.00;;;62.40;;
57899;SDS011;60605;53.716;19.940;2024-02-15T19:18:17;163.80;;;80.40;;
57899;SDS011;60605;53.716;19.940;2024-02-15T19:23:23;217.80;;;95.90;;
57899;SDS011;60605;53.716;19.940;2024-02-15T19:28:27;228.80;;;101.30;;
57899;SDS011;60605;53.716;19.940;2024-02-15T19:33:31;147.20;;;86.10;;
57899;SDS011;60605;53.716;19.940;2024-02-15T19:38:54;93.10;;;54.30;;
57899;SDS011;60605;53.716;19.940;2024-02-15T19:43:59;73.60;;;46.10;;
57899;SDS011;60605;53.716;19.940;2024-02-15T19:49:05;89.20;;;52.00;;
57899;SDS011;60605;53.716;19.940;2024-02-15T19:54:11;190.80;;;88.70;;
57899;SDS011;60605;53.716;19.940;2024-02-15T20:04:37;300.40;;;120.40;;
57899;SDS011;60605;53.716;19.940;2024-02-15T20:09:42;92.60;;;56.80;;
57899;SDS011;60605;53.716;19.940;2024-02-15T20:14:50;88.00;;;50.10;;
57899;SDS011;60605;53.716;19.940;2024-02-15T20:19:54;75.40;;;46.10;;
57899;SDS011;60605;53.716;19.940;2024-02-15T20:24:59;78.10;;;53.20;;
57899;SDS011;60605;53.716;19.940;2024-02-15T20:30:08;66.80;;;42.60;;
57899;SDS011;60605;53.716;19.940;2024-02-15T20:35:12;63.70;;;39.50;;
57899;SDS011;60605;53.716;19.940;2024-02-15T20:40:17;50.70;;;35.80;;
57899;SDS011;60605;53.716;19.940;2024-02-15T20:45:20;63.50;;;40.20;;
57899;SDS011;60605;53.716;19.940;2024-02-15T20:50:24;109.10;;;60.90;;
57899;SDS011;60605;53.716;19.940;2024-02-15T20:55:32;84.80;;;51.60;;
57899;SDS011;60605;53.716;19.940;2024-02-15T21:00:35;70.10;;;38.80;;
57899;SDS011;60605;53.716;19.940;2024-02-15T21:05:39;56.30;;;32.90;;
57899;SDS011;60605;53.716;19.940;2024-02-15T21:10:43;91.90;;;42.50;;
57899;SDS011;60605;53.716;19.940;2024-02-15T21:15:48;68.30;;;38.60;;
57899;SDS011;60605;53.716;19.940;2024-02-15T21:20:51;61.90;;;33.60;;
57899;SDS011;60605;53.716;19.940;2024-02-15T21:25:55;57.30;;;34.10;;
57899;SDS011;60605;53.716;19.940;2024-02-15T21:30:59;73.50;;;41.20;;
57899;SDS011;60605;53.716;19.940;2024-02-15T21:36:03;95.40;;;46.90;;
57899;SDS011;60605;53.716;19.940;2024-02-15T21:41:08;88.90;;;47.70;;
57899;SDS011;60605;53.716;19.940;2024-02-15T21:46:12;94.70;;;54.00;;
57899;SDS011;60605;53.716;19.940;2024-02-15T21:51:16;92.90;;;49.80;;
57899;SDS011;60605;53.716;19.940;2024-02-15T21:56:20;84.50;;;48.90;;
57899;SDS011;60605;53.716;19.940;2024-02-15T22:01:24;151.60;;;71.00;;
57899;SDS011;60605;53.716;19.940;2024-02-15T22:06:29;264.40;;;124.20;;
57899;SDS011;60605;53.716;19.940;2024-02-15T22:11:33;207.80;;;112.20;;
57899;SDS011;60605;53.716;19.940;2024-02-15T22:16:37;127.40;;;71.80;;
57899;SDS011;60605;53.716;19.940;2024-02-15T22:21:41;119.60;;;62.00;;
57899;SDS011;60605;53.716;19.940;2024-02-15T22:26:44;118.90;;;60.80;;
57899;SDS011;60605;53.716;19.940;2024-02-15T22:31:48;103.10;;;47.20;;
57899;SDS011;60605;53.716;19.940;2024-02-15T22:36:51;175.80;;;120.80;;
57899;SDS011;60605;53.716;19.940;2024-02-15T22:41:55;80.50;;;41.90;;
57899;SDS011;60605;53.716;19.940;2024-02-15T22:47:01;77.20;;;39.60;;
57899;SDS011;60605;53.716;19.940;2024-02-15T22:52:06;93.20;;;42.10;;
57899;SDS011;60605;53.716;19.940;2024-02-15T22:57:09;69.10;;;37.00;;
57899;SDS011;60605;53.716;19.940;2024-02-15T23:02:13;92.90;;;42.20;;
57899;SDS011;60605;53.716;19.940;2024-02-15T23:07:17;79.60;;;37.70;;
57899;SDS011;60605;53.716;19.940;2024-02-15T23:12:22;71.30;;;38.70;;
57899;SDS011;60605;53.716;19.940;2024-02-15T23:17:28;58.50;;;34.50;;
57899;SDS011;60605;53.716;19.940;2024-02-15T23:22:33;77.60;;;39.20;;
57899;SDS011;60605;53.716;19.940;2024-02-15T23:27:37;62.50;;;35.50;;
57899;SDS011;60605;53.716;19.940;2024-02-15T23:32:41;63.20;;;36.00;;
57899;SDS011;60605;53.716;19.940;2024-02-15T23:37:45;125.40;;;61.50;;
57899;SDS011;60605;53.716;19.940;2024-02-15T23:43:07;54.70;;;31.40;;
57899;SDS011;60605;53.716;19.940;2024-02-15T23:48:11;50.80;;;34.70;;
57899;SDS011;60605;53.716;19.940;2024-02-15T23:53:14;54.10;;;33.80;;
57899;SDS011;60605;53.716;19.940;2024-02-15T23:58:18;54.50;;;33.90;;
